Time;durP1;ratioP1;P1;durP2;ratioP2;P2;SDS_P1;SDS_P2;PMS_P1;PMS_P2;Temp;Humidity;BMP_temperature;BMP_pressure;BME280_temperature;BME280_humidity;BME280_pressure;Samples;Min_cycle;Max_cycle;Signal;HPM_P1;HPM_P2
2021/01/09 00:00:54;;;;;;;9.23;7.13;;;;;;;1.54;100.00;101144.13;5072120;28;20370;-72
2021/01/09 00:03:22;;;;;;;10.07;7.80;;;;;;;1.52;100.00;101135.50;5090317;28;20206;-71
2021/01/09 00:05:52;;;;;;;8.90;7.10;;;;;;;1.33;100.00;101149.59;5088782;28;20222;-70
2021/01/09 00:08:18;;;;;;;9.30;7.63;;;;;;;1.33;100.00;101146.94;5056880;28;20565;-71
2021/01/09 00:10:44;;;;;;;9.73;7.13;;;;;;;1.33;100.00;101152.28;5072144;28;20244;-71
2021/01/09 00:13:10;;;;;;;8.67;7.00;;;;;;;1.36;100.00;101157.25;5090031;28;20194;-71
2021/01/09 00:15:35;;;;;;;8.70;7.17;;;;;;;1.51;100.00;101163.25;5055032;28;20246;-72
2021/01/09 00:18:04;;;;;;;10.83;7.77;;;;;;;1.58;100.00;101158.75;5057005;28;20226;-72
2021/01/09 00:20:29;;;;;;;9.53;7.27;;;;;;;1.72;100.00;101160.41;5072415;28;20234;-72
2021/01/09 00:22:55;;;;;;;10.27;7.60;;;;;;;1.52;100.00;101164.06;5056142;28;20206;-69
2021/01/09 00:25:21;;;;;;;10.47;7.90;;;;;;;1.51;100.00;101162.44;5072183;28;20826;-70
2021/01/09 00:27:49;;;;;;;12.33;7.77;;;;;;;1.46;100.00;101157.69;5089665;28;20713;-70
2021/01/09 00:30:17;;;;;;;9.93;7.63;;;;;;;1.70;100.00;101165.97;5056142;28;20251;-70
2021/01/09 00:32:43;;;;;;;9.87;7.83;;;;;;;1.64;100.00;101160.59;5089225;28;20692;-71
2021/01/09 00:35:09;;;;;;;9.63;7.37;;;;;;;1.55;100.00;101164.50;5055311;28;20182;-71
2021/01/09 00:37:37;;;;;;;9.40;7.33;;;;;;;1.54;100.00;101168.22;5072686;28;20672;-70
2021/01/09 00:40:07;;;;;;;7.67;6.40;;;;;;;1.72;100.00;101174.66;5089339;28;20190;-73
2021/01/09 00:42:40;;;;;;;9.60;7.37;;;;;;;1.64;100.00;101176.66;5072905;28;20301;-70
2021/01/09 00:45:08;;;;;;;9.10;6.90;;;;;;;1.48;100.00;101174.34;5090912;28;20190;-70
2021/01/09 00:47:36;;;;;;;8.77;7.47;;;;;;;1.58;100.00;101174.81;5060103;28;20239;-70
2021/01/09 00:50:03;;;;;;;9.50;7.20;;;;;;;1.55;100.00;101191.25;5060027;28;20213;-70
2021/01/09 00:52:29;;;;;;;8.93;7.23;;;;;;;1.56;100.00;101188.38;5092464;28;20226;-73
2021/01/09 00:54:55;;;;;;;11.20;7.90;;;;;;;1.75;100.00;101181.44;5075910;28;20817;-73
2021/01/09 00:57:20;;;;;;;10.80;7.20;;;;;;;1.60;100.00;101191.50;5058872;28;20224;-70
2021/01/09 00:59:50;;;;;;;9.77;7.17;;;;;;;1.76;100.00;101188.41;5060768;28;20577;-70
2021/01/09 01:02:18;;;;;;;8.97;6.77;;;;;;;1.67;100.00;101185.13;5075386;28;20348;-73
2021/01/09 01:04:44;;;;;;;9.47;7.13;;;;;;;1.73;100.00;101188.84;5059180;28;20277;-72
2021/01/09 01:07:09;;;;;;;8.93;7.20;;;;;;;1.58;100.00;101190.88;5075256;28;20221;-72
2021/01/09 01:09:37;;;;;;;10.03;7.20;;;;;;;1.74;100.00;101193.16;5076582;28;20179;-72
2021/01/09 01:12:03;;;;;;;6.93;6.20;;;;;;;1.90;100.00;101196.28;5058437;28;20734;-73
2021/01/09 01:14:29;;;;;;;8.90;7.13;;;;;;;1.72;100.00;101187.19;5092622;28;20243;-73
2021/01/09 01:16:54;;;;;;;9.63;6.37;;;;;;;1.59;100.00;101190.66;5075251;28;20221;-74
2021/01/09 01:19:20;;;;;;;8.60;6.80;;;;;;;1.86;100.00;101194.22;5075771;28;20706;-72
2021/01/09 01:21:48;;;;;;;9.17;6.57;;;;;;;2.00;100.00;101191.38;5092112;28;20635;-72
2021/01/09 01:24:14;;;;;;;7.23;6.33;;;;;;;2.04;100.00;101193.41;5058495;28;20206;-73
2021/01/09 01:26:42;;;;;;;8.07;6.87;;;;;;;1.79;100.00;101204.09;5058642;28;20233;-73
2021/01/09 01:29:07;;;;;;;9.77;6.83;;;;;;;1.72;100.00;101204.09;5058663;28;20178;-73
2021/01/09 01:31:33;;;;;;;8.83;7.33;;;;;;;1.83;100.00;101208.00;5058288;28;20673;-72
2021/01/09 01:33:58;;;;;;;8.37;6.40;;;;;;;1.91;100.00;101198.75;5075350;28;20201;-72
2021/01/09 01:36:24;;;;;;;7.83;6.57;;;;;;;1.79;100.00;101209.44;5074787;28;20214;-72
2021/01/09 01:38:52;;;;;;;8.77;6.83;;;;;;;1.78;100.00;101207.81;5075672;28;20198;-72
2021/01/09 01:41:22;;;;;;;8.77;6.97;;;;;;;1.77;100.00;101211.50;5058323;28;20576;-73
2021/01/09 01:43:50;;;;;;;9.10;6.80;;;;;;;1.61;100.00;101209.19;5075934;28;20217;-72
2021/01/09 01:46:16;;;;;;;7.30;6.47;;;;;;;1.72;100.00;101216.63;5057959;28;20218;-72
2021/01/09 01:48:42;;;;;;;7.53;6.10;;;;;;;1.66;100.00;101217.44;5058983;28;20266;-72
2021/01/09 01:51:09;;;;;;;8.30;6.47;;;;;;;1.51;100.00;101222.13;5091385;28;20225;-72
2021/01/09 01:53:35;;;;;;;8.23;6.60;;;;;;;1.69;100.00;101219.72;5059039;28;20217;-72
2021/01/09 01:56:03;;;;;;;9.63;6.43;;;;;;;1.59;100.00;101216.59;5074222;28;20222;-73
2021/01/09 01:58:29;;;;;;;9.00;6.77;;;;;;;1.44;100.00;101215.09;5058571;28;20225;-73
2021/01/09 02:00:54;;;;;;;8.70;6.40;;;;;;;1.67;100.00;101222.59;5074611;28;20691;-71
2021/01/09 02:03:22;;;;;;;8.57;6.80;;;;;;;1.85;100.00;101219.34;5074676;28;20210;-72
2021/01/09 02:05:51;;;;;;;9.27;6.23;;;;;;;1.70;100.00;101222.19;5074105;28;20282;-71
2021/01/09 02:08:17;;;;;;;8.27;6.10;;;;;;;1.50;100.00;101220.47;5091783;28;20218;-73
2021/01/09 02:10:46;;;;;;;8.90;6.07;;;;;;;1.62;100.00;101218.88;5074858;28;20590;-72
2021/01/09 02:13:29;;;;;;;8.40;6.63;;;;;;;1.59;100.00;101228.13;5041493;28;20205;-73
2021/01/09 02:15:55;;;;;;;8.37;6.53;;;;;;;1.52;100.00;101229.16;5090844;28;20778;-72
2021/01/09 02:18:20;;;;;;;9.13;6.40;;;;;;;1.74;100.00;101225.28;5058133;28;20213;-72
2021/01/09 02:20:49;;;;;;;7.60;6.07;;;;;;;1.61;100.00;101223.41;5057306;28;20706;-72
2021/01/09 02:23:15;;;;;;;8.33;6.73;;;;;;;1.54;100.00;101227.09;5057970;28;20628;-72
2021/01/09 02:25:40;;;;;;;9.87;6.87;;;;;;;1.68;100.00;101228.75;5090504;28;20222;-70
2021/01/09 02:28:06;;;;;;;7.03;6.17;;;;;;;1.74;100.00;101226.13;5058035;28;20684;-73
2021/01/09 02:30:35;;;;;;;7.50;6.23;;;;;;;1.46;100.00;101239.81;5090593;28;20225;-71
2021/01/09 02:33:02;;;;;;;9.53;6.40;;;;;;;1.77;100.00;101238.28;5075124;28;20190;-73
2021/01/09 02:35:32;;;;;;;8.83;6.53;;;;;;;1.70;100.00;101226.72;5090129;28;20239;-73
2021/01/09 02:37:58;;;;;;;9.17;7.10;;;;;;;1.71;100.00;101228.38;5074859;28;20237;-72
2021/01/09 02:40:25;;;;;;;9.17;6.40;;;;;;;1.76;100.00;101236.59;5056769;28;20171;-73
2021/01/09 02:42:51;;;;;;;7.67;6.17;;;;;;;1.75;100.00;101234.97;5074009;28;20227;-74
2021/01/09 02:45:19;;;;;;;8.27;6.57;;;;;;;1.87;100.00;101230.66;5056770;28;20190;-72
2021/01/09 02:47:47;;;;;;;8.43;6.77;;;;;;;1.83;100.00;101242.81;5057540;28;20170;-72
2021/01/09 02:50:13;;;;;;;7.87;6.50;;;;;;;1.93;100.00;101239.53;5057434;28;20630;-72
2021/01/09 02:52:42;;;;;;;7.93;6.43;;;;;;;1.95;100.00;101231.31;5073897;28;20255;-72
2021/01/09 02:55:09;;;;;;;7.80;6.60;;;;;;;1.95;100.00;101236.66;5073786;28;20178;-72
2021/01/09 02:57:37;;;;;;;9.43;7.00;;;;;;;1.91;100.00;101234.63;5056851;28;20206;-72
2021/01/09 03:00:04;;;;;;;9.53;7.13;;;;;;;1.65;100.00;101239.91;5091231;28;20185;-72
2021/01/09 03:02:30;;;;;;;9.13;7.20;;;;;;;1.79;100.00;101246.91;5056993;28;20244;-73
2021/01/09 03:04:56;;;;;;;10.10;7.23;;;;;;;1.86;100.00;101247.78;5056852;28;20273;-71
2021/01/09 03:07:21;;;;;;;11.53;7.53;;;;;;;1.98;100.00;101245.13;5074486;28;20226;-72
2021/01/09 03:09:50;;;;;;;10.17;6.80;;;;;;;1.71;100.00;101255.16;5040833;28;20194;-72
2021/01/09 03:12:18;;;;;;;10.40;7.40;;;;;;;1.78;100.00;101256.00;5092373;28;20284;-72
2021/01/09 03:14:43;;;;;;;13.17;7.27;;;;;;;1.68;100.00;101250.19;5074027;28;20269;-73
2021/01/09 03:17:12;;;;;;;10.53;7.47;;;;;;;1.97;100.00;101254.19;5073951;28;20225;-72
2021/01/09 03:19:37;;;;;;;10.90;7.80;;;;;;;1.91;100.00;101251.50;5092460;28;20221;-73
2021/01/09 03:22:03;;;;;;;9.17;7.50;;;;;;;1.86;100.00;101258.47;5090549;28;20344;-72
2021/01/09 03:24:28;;;;;;;9.73;7.27;;;;;;;1.66;100.00;101262.94;5074124;28;20206;-72
2021/01/09 03:26:56;;;;;;;9.27;7.00;;;;;;;1.75;100.00;101272.44;5073726;28;20694;-72
2021/01/09 03:29:22;;;;;;;11.33;8.10;;;;;;;1.81;100.00;101274.31;5056908;28;20189;-72
2021/01/09 03:31:47;;;;;;;9.67;7.30;;;;;;;1.77;100.00;101270.41;5089515;28;20698;-73
2021/01/09 03:34:13;;;;;;;10.47;7.00;;;;;;;1.77;100.00;101265.84;5056693;28;20323;-72
2021/01/09 03:36:41;;;;;;;9.00;7.20;;;;;;;1.81;100.00;101274.31;5089385;28;20299;-72
2021/01/09 03:39:11;;;;;;;10.77;7.93;;;;;;;1.72;100.00;101267.50;5073421;28;20683;-72
2021/01/09 03:41:37;;;;;;;10.70;7.43;;;;;;;1.76;100.00;101269.56;5057156;28;20232;-72
2021/01/09 03:44:03;;;;;;;10.07;7.30;;;;;;;1.63;100.00;101276.72;5073302;28;20651;-73
2021/01/09 03:46:30;;;;;;;9.93;7.23;;;;;;;1.83;100.00;101280.28;5090531;28;20718;-72
2021/01/09 03:48:56;;;;;;;9.57;7.50;;;;;;;2.09;100.00;101270.50;5073086;28;20174;-72
2021/01/09 03:51:21;;;;;;;8.67;6.27;;;;;;;1.78;100.00;101267.53;5055825;28;20308;-72
2021/01/09 03:53:49;;;;;;;8.77;6.93;;;;;;;1.74;100.00;101276.13;5056030;28;20206;-73
2021/01/09 03:56:15;;;;;;;11.90;7.30;;;;;;;1.75;100.00;101277.81;5089223;28;20228;-73
2021/01/09 03:58:44;;;;;;;10.00;7.87;;;;;;;1.71;100.00;101279.25;5089779;28;20210;-71
2021/01/09 04:01:09;;;;;;;10.60;7.43;;;;;;;1.85;100.00;101275.56;5055771;28;20236;-72
2021/01/09 04:03:35;;;;;;;10.57;8.10;;;;;;;1.54;100.00;101291.31;5039953;28;20613;-72
2021/01/09 04:06:01;;;;;;;11.13;7.83;;;;;;;1.60;100.00;101279.81;5088643;28;20755;-72
2021/01/09 04:08:27;;;;;;;10.60;7.53;;;;;;;1.67;100.00;101286.03;5073530;28;20166;-72
2021/01/09 04:10:52;;;;;;;10.43;7.43;;;;;;;1.94;100.00;101286.75;5090246;28;20218;-72
2021/01/09 04:13:20;;;;;;;10.57;7.73;;;;;;;1.97;100.00;101286.31;5056943;28;20682;-72
2021/01/09 04:15:46;;;;;;;12.33;8.37;;;;;;;2.04;100.00;101283.66;5071715;28;20210;-73
2021/01/09 04:18:14;;;;;;;12.77;7.73;;;;;;;1.81;100.00;101293.06;5073628;28;20305;-72
2021/01/09 04:20:42;;;;;;;12.67;9.13;;;;;;;1.68;100.00;101293.00;5074701;28;20743;-72
2021/01/09 04:23:07;;;;;;;12.33;8.60;;;;;;;1.80;100.00;101294.09;5078126;28;20193;-72
2021/01/09 04:25:36;;;;;;;12.73;8.23;;;;;;;1.85;100.00;101294.31;5077830;28;20263;-72
2021/01/09 04:28:01;;;;;;;12.83;8.97;;;;;;;1.76;100.00;101299.03;5096192;28;20175;-72
2021/01/09 04:30:27;;;;;;;15.97;8.33;;;;;;;1.93;100.00;101298.47;5077434;28;20218;-72
2021/01/09 04:32:52;;;;;;;14.43;8.40;;;;;;;1.98;100.00;101301.38;5060736;28;20194;-72
2021/01/09 04:35:20;;;;;;;11.50;7.10;;;;;;;1.94;100.00;101297.44;5076947;28;20189;-72
2021/01/09 04:37:46;;;;;;;12.03;6.93;;;;;;;2.11;100.00;101301.41;5094797;28;20306;-72
2021/01/09 04:40:12;;;;;;;11.80;7.97;;;;;;;2.17;100.00;101308.63;5059547;28;20182;-72
2021/01/09 04:42:37;;;;;;;13.00;7.47;;;;;;;2.06;100.00;101309.22;5060147;28;20194;-73
2021/01/09 04:45:08;;;;;;;13.03;8.13;;;;;;;2.13;100.00;101310.06;5075786;28;20214;-73
2021/01/09 04:47:36;;;;;;;11.03;7.17;;;;;;;2.11;100.00;101311.31;5077032;28;20186;-73
2021/01/09 04:50:02;;;;;;;11.37;8.07;;;;;;;2.13;100.00;101312.75;5059880;28;20662;-73
2021/01/09 04:52:30;;;;;;;12.27;8.00;;;;;;;1.90;100.00;101315.97;5059967;28;20226;-73
2021/01/09 04:54:59;;;;;;;13.13;8.43;;;;;;;1.95;100.00;101323.19;5059313;28;20237;-73
2021/01/09 04:57:26;;;;;;;11.23;7.10;;;;;;;2.04;100.00;101316.63;5042894;28;20225;-73
2021/01/09 04:59:55;;;;;;;12.33;7.97;;;;;;;2.05;100.00;101318.28;5077326;28;20216;-72
2021/01/09 05:02:20;;;;;;;11.40;7.93;;;;;;;1.92;100.00;101318.25;5092679;28;20234;-72
2021/01/09 05:04:46;;;;;;;12.37;7.97;;;;;;;1.91;100.00;101314.94;5075943;28;20186;-72
2021/01/09 05:07:12;;;;;;;13.63;7.47;;;;;;;1.82;100.00;101324.19;5075762;28;20222;-72
2021/01/09 05:09:37;;;;;;;14.80;8.83;;;;;;;1.87;100.00;101327.06;5093694;28;20265;-72
2021/01/09 05:12:03;;;;;;;14.37;8.73;;;;;;;2.01;100.00;101327.72;5092709;28;20234;-73
2021/01/09 05:14:29;;;;;;;13.40;8.53;;;;;;;2.03;100.00;101325.69;5076213;28;20201;-73
2021/01/09 05:16:58;;;;;;;11.23;7.40;;;;;;;2.05;100.00;101336.19;5059051;28;20752;-73
2021/01/09 05:19:30;;;;;;;1.23;0.77;;;;;;;2.15;100.00;101333.97;5059790;28;20214;-72
2021/01/09 05:22:02;;;;;;;0.10;0.10;;;;;;;2.19;100.00;101343.25;5044741;28;20214;-73
2021/01/09 05:24:28;;;;;;;0.10;0.10;;;;;;;2.08;100.00;101344.66;5056076;28;20609;-72
2021/01/09 05:26:56;;;;;;;0.57;0.27;;;;;;;1.97;100.00;101342.56;5071636;28;20217;-72
2021/01/09 05:29:25;;;;;;;0.10;0.10;;;;;;;2.00;100.00;101352.88;5075249;28;20554;-73
2021/01/09 05:31:55;;;;;;;0.10;0.10;;;;;;;2.11;100.00;101359.53;5075432;28;20229;-72
2021/01/09 05:34:21;;;;;;;0.20;0.20;;;;;;;2.05;100.00;101355.78;5058444;28;20190;-72
2021/01/09 05:36:46;;;;;;;0.23;0.23;;;;;;;2.09;100.00;101362.41;5073434;28;20252;-73
2021/01/09 05:39:14;;;;;;;0.30;0.30;;;;;;;2.01;100.00;101359.88;5058954;28;20202;-72
2021/01/09 05:41:41;;;;;;;0.50;0.50;;;;;;;2.07;100.00;101364.44;5058971;28;21001;-71
2021/01/09 05:44:08;;;;;;;0.13;0.13;;;;;;;2.05;100.00;101366.50;5059788;28;20186;-75
2021/01/09 05:46:38;;;;;;;0.20;0.20;;;;;;;2.06;100.00;101370.81;5074678;28;20222;-72
2021/01/09 05:49:07;;;;;;;0.40;0.40;;;;;;;2.18;100.00;101369.22;5059511;28;20186;-72
2021/01/09 05:51:38;;;;;;;0.10;0.10;;;;;;;2.19;100.00;101373.53;5092525;28;20221;-73
2021/01/09 05:54:03;;;;;;;0.67;0.67;;;;;;;2.26;100.00;101365.53;5075385;28;20442;-72
2021/01/09 05:56:33;;;;;;;0.20;0.20;;;;;;;2.01;100.00;101367.09;5057279;28;20770;-73
2021/01/09 05:58:58;;;;;;;1.50;1.43;;;;;;;1.93;100.00;101360.06;5075168;28;20210;-73
2021/01/09 06:01:27;;;;;;;0.13;0.13;;;;;;;1.93;100.00;101369.94;5058043;28;20214;-71
2021/01/09 06:04:17;;;;;;;0.20;0.20;;;;;;;2.01;100.00;101365.22;5092115;28;20207;-72
2021/01/09 06:07:06;;;;;;;0.83;0.83;;;;;;;2.04;100.00;101369.38;5090804;28;20220;-73
2021/01/09 06:09:36;;;;;;;0.30;0.30;;;;;;;2.00;100.00;101374.31;5092188;28;20175;-72
2021/01/09 06:12:06;;;;;;;0.20;0.20;;;;;;;2.00;100.00;101374.31;5074484;28;20604;-72
2021/01/09 06:14:35;;;;;;;0.20;0.20;;;;;;;2.03;100.00;101383.78;5058034;28;20178;-72
2021/01/09 06:17:02;;;;;;;1.13;1.03;;;;;;;2.03;100.00;101381.94;5091228;28;20652;-73
2021/01/09 06:19:28;;;;;;;0.67;0.53;;;;;;;1.92;100.00;101377.16;5074593;28;20209;-72
2021/01/09 06:21:53;;;;;;;0.10;0.10;;;;;;;2.02;100.00;101377.59;5091064;28;20594;-72
2021/01/09 06:24:20;;;;;;;0.47;0.47;;;;;;;2.09;100.00;101383.81;5057208;28;20193;-72
2021/01/09 06:26:45;;;;;;;0.37;0.37;;;;;;;1.96;100.00;101383.75;5057497;28;20214;-72
2021/01/09 06:29:23;;;;;;;0.10;0.10;;;;;;;1.89;100.00;101382.09;5057969;28;20209;-73
2021/01/09 06:31:54;;;;;;;0.10;0.10;;;;;;;1.80;100.00;101379.78;5074356;28;20309;-72
2021/01/09 06:34:26;;;;;;;0.37;0.37;;;;;;;1.94;100.00;101393.84;5057978;28;20664;-73
2021/01/09 06:37:01;;;;;;;0.50;0.50;;;;;;;1.80;100.00;101398.50;5074963;28;20245;-72
2021/01/09 06:39:30;;;;;;;0.20;0.20;;;;;;;1.94;100.00;101395.69;5075180;28;20598;-72
2021/01/09 06:42:00;;;;;;;0.20;0.20;;;;;;;1.96;100.00;101399.00;5056547;28;20271;-72
2021/01/09 06:44:26;;;;;;;0.10;0.10;;;;;;;1.81;100.00;101400.97;5074353;28;20174;-73
2021/01/09 06:46:52;;;;;;;0.10;0.10;;;;;;;1.74;100.00;101401.97;5056766;28;20240;-73
2021/01/09 06:49:22;;;;;;;0.10;0.10;;;;;;;1.91;100.00;101401.44;5074543;28;20178;-73
2021/01/09 06:52:01;;;;;;;0.87;0.87;;;;;;;1.84;100.00;101399.78;5056714;28;20230;-72
2021/01/09 06:54:41;;;;;;;0.53;0.53;;;;;;;1.89;100.00;101408.00;5088219;28;20185;-72
2021/01/09 06:57:20;;;;;;;0.20;0.20;;;;;;;1.74;100.00;101413.53;5090992;28;20289;-72
2021/01/09 06:59:46;;;;;;;0.10;0.10;;;;;;;1.72;100.00;101417.41;5091237;28;20620;-72
2021/01/09 07:02:16;;;;;;;0.20;0.20;;;;;;;1.84;100.00;101421.19;5073337;28;20737;-72
2021/01/09 07:05:05;;;;;;;0.27;0.27;;;;;;;1.85;100.00;101420.16;5057450;28;20174;-73
2021/01/09 07:07:32;;;;;;;0.20;0.20;;;;;;;1.78;100.00;101416.63;5059764;28;20226;-73
2021/01/09 07:10:17;;;;;;;1.00;1.00;;;;;;;1.81;100.00;101418.91;5053844;28;20194;-73
2021/01/09 07:12:59;;;;;;;4.63;1.03;;;;;;;1.83;100.00;101420.34;5056465;28;20236;-74
2021/01/09 07:15:25;;;;;;;1.20;0.70;;;;;;;2.03;100.00;101422.13;5069319;28;20293;-72
2021/01/09 07:18:00;;;;;;;0.00;0.00;;;;;;;1.95;100.00;101424.94;5037119;28;20189;-72
2021/01/09 07:20:38;;;;;;;0.37;0.37;;;;;;;1.91;100.00;101432.78;5038044;28;20275;-72
2021/01/09 07:23:05;;;;;;;0.10;0.10;;;;;;;1.86;100.00;101425.31;5042072;28;20213;-72
2021/01/09 07:25:41;;;;;;;0.10;0.10;;;;;;;1.91;100.00;101432.78;5055757;28;20213;-73
2021/01/09 07:28:17;;;;;;;3.87;1.80;;;;;;;1.97;100.00;101435.47;5090483;28;20670;-73
2021/01/09 07:30:49;;;;;;;0.60;0.60;;;;;;;1.85;100.00;101433.53;5089626;28;20218;-72
2021/01/09 07:33:17;;;;;;;0.17;0.17;;;;;;;1.73;100.00;101435.94;5056730;28;20214;-73
2021/01/09 07:35:45;;;;;;;0.43;0.43;;;;;;;1.74;100.00;101436.75;5056136;28;20303;-73
2021/01/09 07:38:12;;;;;;;4.63;0.90;;;;;;;1.88;100.00;101450.03;5090409;28;20210;-72
2021/01/09 07:41:00;;;;;;;0.20;0.20;;;;;;;2.07;100.00;101443.94;5073374;28;20691;-72
2021/01/09 07:43:38;;;;;;;0.50;0.50;;;;;;;2.20;100.00;101444.03;5074393;28;20301;-72
2021/01/09 07:46:29;;;;;;;0.30;0.30;;;;;;;2.04;100.00;101450.53;5073046;28;20592;-72
2021/01/09 07:49:01;;;;;;;0.30;0.30;;;;;;;2.06;100.00;101464.56;5090398;28;20206;-73
2021/01/09 07:51:49;;;;;;;0.10;0.10;;;;;;;2.02;100.00;101468.66;5056367;28;20226;-74
2021/01/09 07:54:46;;;;;;;0.10;0.10;;;;;;;1.87;100.00;101471.66;5072026;28;20277;-72
2021/01/09 07:57:17;;;;;;;0.43;0.33;;;;;;;1.91;100.00;101466.53;5069575;28;20223;-72
2021/01/09 08:00:07;;;;;;;0.10;0.10;;;;;;;1.95;100.00;101483.88;5086416;28;20210;-72
2021/01/09 08:02:37;;;;;;;0.10;0.10;;;;;;;1.83;100.00;101481.09;5075005;28;20221;-73
2021/01/09 08:05:14;;;;;;;0.10;0.10;;;;;;;1.87;100.00;101475.19;5056235;28;20580;-72
2021/01/09 08:07:43;;;;;;;0.10;0.10;;;;;;;1.62;100.00;101489.19;5091618;28;20535;-73
2021/01/09 08:10:42;;;;;;;0.63;0.63;;;;;;;1.85;100.00;101492.44;5055982;28;20284;-73
2021/01/09 08:13:08;;;;;;;0.83;0.83;;;;;;;2.05;100.00;101489.72;5068131;28;20613;-73
2021/01/09 08:15:36;;;;;;;0.93;0.93;;;;;;;1.86;100.00;101499.47;5071835;28;20229;-72
2021/01/09 08:18:04;;;;;;;0.10;0.10;;;;;;;1.80;100.00;101497.56;5056326;28;20182;-73
2021/01/09 08:20:30;;;;;;;0.30;0.30;;;;;;;1.99;100.00;101498.50;5089134;28;20298;-72
2021/01/09 08:22:59;;;;;;;0.40;0.40;;;;;;;1.99;100.00;101501.19;5054625;28;20565;-73
2021/01/09 08:25:29;;;;;;;0.20;0.20;;;;;;;1.99;100.00;101511.91;5088787;28;20305;-74
2021/01/09 08:27:56;;;;;;;0.93;0.93;;;;;;;2.01;100.00;101515.22;5056374;28;20182;-72
2021/01/09 08:30:35;;;;;;;0.10;0.10;;;;;;;1.91;100.00;101522.78;5089141;28;20178;-72
2021/01/09 08:33:06;;;;;;;0.87;0.87;;;;;;;1.92;100.00;101527.13;5072721;28;20271;-72
2021/01/09 08:35:32;;;;;;;0.10;0.10;;;;;;;2.11;100.00;101521.06;5072572;28;20210;-74
2021/01/09 08:37:57;;;;;;;0.53;0.53;;;;;;;2.10;100.00;101523.94;5073005;28;20216;-72
2021/01/09 08:40:24;;;;;;;0.60;0.60;;;;;;;2.16;100.00;101533.84;5090643;28;20557;-73
2021/01/09 08:42:55;;;;;;;0.67;0.67;;;;;;;2.26;100.00;101534.34;5090054;28;20202;-73
2021/01/09 08:45:49;;;;;;;0.13;0.13;;;;;;;2.01;100.00;101530.47;5089333;28;20232;-73
2021/01/09 08:48:25;;;;;;;0.40;0.40;;;;;;;2.07;100.00;101529.66;5057880;28;20178;-72
2021/01/09 08:50:52;;;;;;;0.10;0.10;;;;;;;2.26;100.00;101532.50;5073433;28;20230;-73
2021/01/09 08:53:21;;;;;;;0.20;0.20;;;;;;;2.37;100.00;101531.94;5073033;28;20214;-73
2021/01/09 08:55:50;;;;;;;0.10;0.10;;;;;;;2.28;100.00;101533.13;5041409;28;20610;-73
2021/01/09 08:58:16;;;;;;;0.10;0.10;;;;;;;2.28;100.00;101538.47;5058063;28;20306;-72
2021/01/09 09:00:42;;;;;;;0.20;0.20;;;;;;;2.38;100.00;101541.59;5089620;28;20222;-73
2021/01/09 09:03:11;;;;;;;0.10;0.10;;;;;;;2.27;100.00;101539.47;5073305;28;20270;-73
2021/01/09 09:05:38;;;;;;;0.10;0.10;;;;;;;2.14;100.00;101542.09;5089084;28;20230;-72
2021/01/09 09:08:09;;;;;;;0.30;0.30;;;;;;;2.35;100.00;101544.69;5053120;28;20194;-74
2021/01/09 09:10:34;;;;;;;0.20;0.20;;;;;;;2.39;100.00;101540.59;5093505;28;20218;-73
2021/01/09 09:13:22;;;;;;;0.60;0.60;;;;;;;2.17;100.00;101546.25;5093653;28;20668;-73
2021/01/09 09:15:51;;;;;;;0.10;0.10;;;;;;;2.27;100.00;101552.06;5073987;28;20218;-74
2021/01/09 09:18:20;;;;;;;0.30;0.30;;;;;;;2.27;100.00;101544.84;5089646;28;20266;-73
2021/01/09 09:20:54;;;;;;;0.10;0.10;;;;;;;2.26;100.00;101545.88;5088002;28;20229;-72
2021/01/09 09:23:26;;;;;;;0.30;0.30;;;;;;;2.19;100.00;101555.72;5068680;28;20859;-73
2021/01/09 09:26:10;;;;;;;0.10;0.10;;;;;;;2.12;100.00;101560.22;5054184;28;20251;-72
2021/01/09 09:29:05;;;;;;;0.30;0.30;;;;;;;2.05;100.00;101551.31;5061079;28;20557;-72
2021/01/09 09:31:35;;;;;;;0.10;0.10;;;;;;;2.39;100.00;101545.97;5055388;28;20222;-73
2021/01/09 09:34:05;;;;;;;6.17;2.70;;;;;;;2.21;100.00;101556.34;5064620;28;20687;-73
2021/01/09 09:36:34;;;;;;;10.57;5.50;;;;;;;2.26;100.00;101556.59;5074812;28;20225;-73
2021/01/09 09:39:13;;;;;;;14.47;7.57;;;;;;;2.16;100.00;101556.13;5075445;28;20221;-73
2021/01/09 09:41:51;;;;;;;14.20;8.43;;;;;;;2.08;100.00;101558.94;5076099;28;20359;-72
2021/01/09 09:44:17;;;;;;;17.50;10.40;;;;;;;2.23;100.00;101559.66;5075129;28;20197;-71
2021/01/09 09:46:43;;;;;;;17.27;11.53;;;;;;;2.34;100.00;101553.75;5075133;28;20218;-71
2021/01/09 09:49:11;;;;;;;19.87;11.83;;;;;;;2.34;100.00;101561.78;5050750;28;20185;-73
2021/01/09 09:51:41;;;;;;;18.63;12.17;;;;;;;2.09;100.00;101573.19;5076109;28;20217;-73
2021/01/09 09:54:07;;;;;;;16.97;11.57;;;;;;;2.23;100.00;101556.16;5090514;28;20214;-73
2021/01/09 09:56:36;;;;;;;15.27;11.40;;;;;;;2.22;100.00;101557.19;5056690;28;20286;-72
2021/01/09 09:59:09;;;;;;;18.43;11.97;;;;;;;2.37;100.00;101559.56;5074016;28;20293;-72
2021/01/09 10:01:35;;;;;;;17.33;12.03;;;;;;;2.27;100.00;101557.41;5086887;28;20259;-72
2021/01/09 10:04:01;;;;;;;18.03;12.00;;;;;;;2.35;100.00;101563.47;5076378;28;20226;-72
2021/01/09 10:06:36;;;;;;;16.50;11.53;;;;;;;2.37;100.00;101556.88;5055871;28;20277;-73
2021/01/09 10:09:21;;;;;;;16.73;11.47;;;;;;;2.34;100.00;101556.44;5083510;28;20268;-72
2021/01/09 10:11:48;;;;;;;18.07;12.10;;;;;;;2.33;100.00;101552.94;5088445;28;20282;-73
2021/01/09 10:14:14;;;;;;;15.80;11.87;;;;;;;2.46;100.00;101557.56;5038688;28;20180;-73
2021/01/09 10:16:42;;;;;;;19.13;12.33;;;;;;;2.49;100.00;101557.13;5069133;28;20280;-73
2021/01/09 10:19:10;;;;;;;15.87;11.63;;;;;;;2.62;100.00;101554.50;5037626;28;20215;-72
2021/01/09 10:21:40;;;;;;;16.13;11.97;;;;;;;2.67;100.00;101565.47;5051716;28;20221;-73
2021/01/09 10:24:06;;;;;;;15.90;11.67;;;;;;;2.61;100.00;101556.38;5066535;28;20217;-72
2021/01/09 10:26:33;;;;;;;17.43;11.93;;;;;;;2.36;100.00;101559.75;5045726;28;20219;-73
2021/01/09 10:29:08;;;;;;;17.03;11.33;;;;;;;2.76;100.00;101557.88;5051940;28;20202;-75
2021/01/09 10:31:37;;;;;;;15.37;11.53;;;;;;;2.58;100.00;101555.94;5055017;28;20435;-72
2021/01/09 10:34:07;;;;;;;16.13;10.57;;;;;;;2.65;100.00;101564.84;5053976;28;20301;-73
2021/01/09 10:36:35;;;;;;;14.00;10.80;;;;;;;2.73;100.00;101557.47;5100516;27;20268;-71
2021/01/09 10:39:01;;;;;;;13.93;10.27;;;;;;;2.50;100.00;101559.63;5053519;28;20199;-71
2021/01/09 10:41:27;;;;;;;15.00;11.10;;;;;;;2.47;100.00;101559.19;5063028;28;20217;-72
2021/01/09 10:43:53;;;;;;;15.40;11.03;;;;;;;2.49;100.00;101557.13;5032335;28;20195;-73
2021/01/09 10:46:30;;;;;;;16.40;10.40;;;;;;;2.55;100.00;101553.69;5055825;28;20718;-73
2021/01/09 10:48:56;;;;;;;13.10;9.57;;;;;;;2.39;100.00;101554.00;5068143;28;20174;-72
2021/01/09 10:51:26;;;;;;;13.07;9.97;;;;;;;2.38;100.00;101558.53;5069993;28;20264;-72
2021/01/09 10:53:53;;;;;;;15.07;9.97;;;;;;;2.42;100.00;101553.63;5084098;28;20203;-72
2021/01/09 10:56:19;;;;;;;14.40;10.30;;;;;;;2.42;100.00;101556.28;5048594;28;20719;-73
2021/01/09 10:58:45;;;;;;;13.17;10.10;;;;;;;2.71;100.00;101546.94;5050842;28;20203;-72
2021/01/09 11:01:10;;;;;;;14.13;10.43;;;;;;;2.72;100.00;101543.22;5081826;28;20281;-73
2021/01/09 11:03:40;;;;;;;15.07;10.47;;;;;;;2.84;100.00;101546.16;5063795;28;20808;-72
2021/01/09 11:06:06;;;;;;;13.53;9.80;;;;;;;2.74;100.00;101546.53;5084833;28;20302;-73
2021/01/09 11:08:32;;;;;;;14.07;10.27;;;;;;;2.68;100.00;101551.88;5083873;28;20178;-72
2021/01/09 11:10:58;;;;;;;12.43;9.13;;;;;;;2.58;100.00;101551.41;5067636;28;20216;-72
2021/01/09 11:13:23;;;;;;;13.20;9.63;;;;;;;2.62;100.00;101550.00;5062629;28;20202;-72
2021/01/09 11:15:50;;;;;;;11.93;9.33;;;;;;;2.66;100.00;101548.56;5054727;28;20226;-72
2021/01/09 11:18:16;;;;;;;12.23;8.83;;;;;;;2.53;100.00;101545.00;5101959;28;20631;-72
2021/01/09 11:20:50;;;;;;;12.17;9.03;;;;;;;2.49;100.00;101546.41;5072173;28;20267;-72
2021/01/09 11:23:16;;;;;;;12.63;9.13;;;;;;;2.70;100.00;101542.59;5086381;28;20603;-71
2021/01/09 11:25:43;;;;;;;13.77;9.90;;;;;;;2.77;100.00;101539.97;5064140;28;20222;-71
2021/01/09 11:28:09;;;;;;;11.60;9.37;;;;;;;2.73;100.00;101544.06;5069905;28;20267;-71
2021/01/09 11:30:37;;;;;;;13.30;9.30;;;;;;;2.67;100.00;101555.56;5086064;28;20318;-71